Terminal Aerodrome Forecast
Issued by NWS

Home | Current Version | Previous Version | Text Only | Print | Product List | Glossary On
Versions: 1 2 3 4 5 6 7 8 9 10 11 12 13 14 15 16 17 18 19 20 21 22 23 24 25 26 27 28
000
FTUS41 KBUF 251120
TAFJHW
TAF
KJHW 251120Z 2512/2612 23008KT P6SM SCT060
     FM251400 26010G20KT P6SM BKN050
     FM251600 26012G22KT P6SM VCTS BKN050CB
     FM260000 27009KT P6SM SCT250
     FM260300 24008KT P6SM BKN040
     FM260400 24008KT P6SM VCSH BKN035
     FM260800 23007KT 6SM -SHRA BKN025
      AMD LTD TO CLD VIS AND WIND=

USA.gov is the U.S. government's official web portal to all federal, state and local government web resources and services.